Time;durP1;ratioP1;P1;durP2;ratioP2;P2;SDS_P1;SDS_P2;PMS_P1;PMS_P2;Temp;Humidity;BMP_temperature;BMP_pressure;BME280_temperature;BME280_humidity;BME280_pressure;Samples;Min_cycle;Max_cycle;Signal;HPM_P1;HPM_P2
2022/06/19 00:02:25;;;;;;;8.35;7.55;;;;;;;24.02;44.90;99969.53;4996549;28;101505;-79
2022/06/19 00:04:52;;;;;;;8.55;7.63;;;;;;;23.78;45.10;99944.09;5010925;28;100897;-82
2022/06/19 00:07:18;;;;;;;7.70;7.10;;;;;;;24.04;45.07;99983.63;4993659;28;97289;-82
2022/06/19 00:09:43;;;;;;;8.23;7.43;;;;;;;23.98;45.39;99965.47;5001783;28;97318;-85
2022/06/19 00:12:09;;;;;;;8.23;7.15;;;;;;;23.86;45.30;99960.28;5013092;28;101722;-81
2022/06/19 00:14:35;;;;;;;9.25;7.05;;;;;;;23.89;45.23;99948.44;4995602;28;101113;-80
2022/06/19 00:17:01;;;;;;;7.90;7.28;;;;;;;24.03;44.83;99952.44;5030542;28;97077;-79
2022/06/19 00:19:27;;;;;;;8.23;7.28;;;;;;;24.12;45.35;99964.97;4996936;28;97507;-81
2022/06/19 00:21:52;;;;;;;8.85;7.97;;;;;;;24.02;45.28;99959.63;4990272;28;100542;-81
2022/06/19 00:24:18;;;;;;;10.65;7.05;;;;;;;23.89;45.41;99937.69;5008810;28;101464;-81
2022/06/19 00:26:43;;;;;;;8.05;7.20;;;;;;;23.78;45.88;99952.13;4995845;28;97091;-80
2022/06/19 00:29:09;;;;;;;7.85;7.18;;;;;;;23.77;45.93;99938.88;5011450;28;97009;-79
2022/06/19 00:31:35;;;;;;;8.75;7.07;;;;;;;23.89;45.88;99954.63;4996067;28;101767;-79
2022/06/19 00:34:00;;;;;;;8.95;7.63;;;;;;;23.91;46.10;99949.09;5005987;28;101016;-80
2022/06/19 00:36:27;;;;;;;8.40;7.63;;;;;;;24.03;45.89;99947.94;4987450;28;97290;-79
2022/06/19 00:38:54;;;;;;;7.97;7.38;;;;;;;24.06;46.04;99939.59;4998981;28;98211;-79
2022/06/19 00:41:19;;;;;;;7.25;6.75;;;;;;;23.95;46.26;99946.00;5016502;28;98154;-80
2022/06/19 00:43:56;;;;;;;8.02;7.32;;;;;;;24.09;46.00;99933.09;5016560;28;101852;-85
2022/06/19 00:46:47;;;;;;;7.97;7.28;;;;;;;24.12;45.80;99933.66;4999747;28;97243;-79
2022/06/19 00:49:16;;;;;;;8.10;7.50;;;;;;;24.15;45.93;99941.41;4999998;28;96989;-79
2022/06/19 00:51:42;;;;;;;7.65;7.07;;;;;;;24.08;46.40;99939.44;4995516;28;101440;-82
2022/06/19 00:54:10;;;;;;;8.55;7.32;;;;;;;24.24;45.88;99945.00;4996037;28;101448;-82
2022/06/19 00:56:36;;;;;;;7.63;6.93;;;;;;;24.18;46.50;99949.13;5016128;28;97044;-79
2022/06/19 00:59:03;;;;;;;7.55;7.05;;;;;;;24.17;46.50;99938.53;5034853;28;97658;-79
2022/06/19 01:01:29;;;;;;;7.82;7.13;;;;;;;24.34;45.87;99943.09;5015686;28;101474;-79
2022/06/19 01:04:09;;;;;;;10.68;6.85;;;;;;;24.25;46.11;99946.69;4998909;28;101530;-82
2022/06/19 01:06:35;;;;;;;8.82;7.10;;;;;;;24.10;46.46;99942.81;5015928;28;96886;-79
2022/06/19 01:09:02;;;;;;;7.93;7.10;;;;;;;24.05;46.41;99929.84;5014688;28;97282;-80
2022/06/19 01:11:31;;;;;;;8.38;7.55;;;;;;;23.95;46.91;99935.28;5031237;28;97382;-82
2022/06/19 01:13:57;;;;;;;7.10;6.60;;;;;;;23.90;47.42;99945.59;5031868;28;98330;-79
2022/06/19 01:16:22;;;;;;;7.97;7.18;;;;;;;23.90;47.63;99958.97;5031242;28;97295;-82
2022/06/19 01:18:48;;;;;;;8.68;7.78;;;;;;;23.78;48.00;99935.19;5015446;28;97424;-85
2022/06/19 01:21:24;;;;;;;10.30;7.55;;;;;;;23.82;48.09;99950.81;4998651;28;101254;-82
2022/06/19 01:24:08;;;;;;;9.05;7.82;;;;;;;23.86;47.86;99956.75;5012204;28;101270;-81
2022/06/19 01:26:40;;;;;;;8.93;7.32;;;;;;;23.78;47.90;99952.13;5011068;28;97795;-79
2022/06/19 01:29:06;;;;;;;7.90;6.68;;;;;;;23.82;48.14;99953.50;4998374;28;96977;-81
2022/06/19 01:31:41;;;;;;;8.50;7.85;;;;;;;23.64;48.28;99928.44;5032148;28;98359;-79
2022/06/19 01:34:27;;;;;;;8.70;7.68;;;;;;;23.76;48.34;99946.06;5032854;28;97701;-81
2022/06/19 01:37:25;;;;;;;7.80;7.20;;;;;;;23.74;48.38;99945.38;5001348;28;97333;-79
2022/06/19 01:40:11;;;;;;;10.52;7.93;;;;;;;23.65;48.74;99947.06;5022732;28;98050;-81
2022/06/19 01:42:37;;;;;;;8.00;7.25;;;;;;;23.70;48.52;99944.81;5014375;28;101264;-81
2022/06/19 01:45:04;;;;;;;7.72;7.03;;;;;;;23.65;48.83;99947.06;5009420;28;98453;-82
2022/06/19 01:47:30;;;;;;;8.02;7.22;;;;;;;23.75;48.81;99944.38;5010059;28;97146;-78
2022/06/19 01:49:58;;;;;;;7.63;6.97;;;;;;;23.57;49.53;99941.56;5006108;28;97456;-80
2022/06/19 01:52:25;;;;;;;8.00;7.30;;;;;;;23.40;49.72;99918.22;4988088;28;101215;-81
2022/06/19 01:55:12;;;;;;;9.85;7.93;;;;;;;23.52;49.95;99946.50;5004254;28;97444;-85
2022/06/19 01:57:40;;;;;;;8.57;7.70;;;;;;;23.52;50.00;99945.69;5011472;28;97255;-82
2022/06/19 02:00:12;;;;;;;8.35;7.55;;;;;;;23.71;49.36;99945.66;5011136;28;96916;-83
2022/06/19 02:02:43;;;;;;;8.43;7.63;;;;;;;23.64;49.25;99933.78;5007313;28;98117;-81
2022/06/19 02:05:09;;;;;;;8.65;7.50;;;;;;;23.56;49.95;99934.53;4991691;28;100895;-83
2022/06/19 02:07:34;;;;;;;8.35;7.35;;;;;;;23.54;49.50;99923.13;5005246;28;96623;-86
2022/06/19 02:10:01;;;;;;;7.72;7.10;;;;;;;23.55;49.81;99929.31;4998130;28;96900;-82
2022/06/19 02:12:29;;;;;;;9.00;7.70;;;;;;;23.42;49.79;99916.25;5020268;28;98493;-81
2022/06/19 02:14:55;;;;;;;7.55;6.72;;;;;;;23.56;50.20;99923.81;4992570;28;100897;-81
2022/06/19 02:17:33;;;;;;;7.40;6.90;;;;;;;23.46;50.12;99933.69;5007297;28;96920;-81
2022/06/19 02:19:59;;;;;;;8.40;7.60;;;;;;;23.33;50.57;99919.75;4996261;28;96848;-82
2022/06/19 02:22:26;;;;;;;8.57;7.90;;;;;;;23.55;49.81;99927.47;4994505;28;99459;-78
2022/06/19 02:24:51;;;;;;;8.60;7.90;;;;;;;23.41;50.36;99925.25;5013823;28;101153;-85
2022/06/19 02:27:17;;;;;;;7.90;7.20;;;;;;;23.38;50.12;99921.03;4998822;28;97155;-78
2022/06/19 02:29:43;;;;;;;7.57;6.82;;;;;;;23.32;50.76;99923.44;4998353;28;97135;-81
2022/06/19 02:32:29;;;;;;;7.95;7.30;;;;;;;23.24;51.17;99927.69;5010470;28;100973;-82
2022/06/19 02:34:54;;;;;;;7.18;6.60;;;;;;;23.25;50.66;99916.00;4994237;28;101768;-81
2022/06/19 02:37:23;;;;;;;10.60;6.93;;;;;;;23.25;51.23;99928.53;5014549;28;97284;-79
2022/06/19 02:39:56;;;;;;;8.07;7.43;;;;;;;23.25;51.38;99933.88;4997481;28;97229;-81
2022/06/19 02:42:22;;;;;;;18.35;8.13;;;;;;;23.36;50.90;99923.03;4996194;28;101594;-80
2022/06/19 02:44:53;;;;;;;8.27;7.60;;;;;;;23.29;51.44;99916.53;5022758;28;101120;-81
2022/06/19 02:47:20;;;;;;;12.50;7.65;;;;;;;23.23;51.39;99912.59;5013918;28;96865;-82
2022/06/19 02:49:45;;;;;;;10.48;8.10;;;;;;;23.26;51.27;99925.69;4998245;28;96986;-82
2022/06/19 02:52:12;;;;;;;9.18;8.05;;;;;;;23.41;50.57;99911.88;5014259;28;98420;-79
2022/06/19 02:54:38;;;;;;;11.20;8.32;;;;;;;23.32;50.59;99918.94;4991216;28;101106;-79
2022/06/19 02:57:05;;;;;;;8.43;7.63;;;;;;;22.97;50.80;99876.72;5012972;28;96795;-81
2022/06/19 02:59:32;;;;;;;7.80;7.13;;;;;;;22.86;51.32;99906.25;4997806;28;97043;-80
2022/06/19 03:01:58;;;;;;;10.50;8.02;;;;;;;22.69;51.54;99907.78;5012832;28;101344;-82
2022/06/19 03:04:26;;;;;;;8.07;7.38;;;;;;;22.64;51.54;99904.72;5008254;28;98163;-79
2022/06/19 03:06:52;;;;;;;8.82;8.05;;;;;;;22.63;51.68;99911.03;4994183;28;97326;-83
2022/06/19 03:09:18;;;;;;;8.35;7.75;;;;;;;22.49;51.58;99886.41;4996693;28;96848;-81
2022/06/19 03:11:44;;;;;;;8.10;7.50;;;;;;;22.71;51.56;99919.22;4990901;28;101143;-79
2022/06/19 03:14:09;;;;;;;8.70;7.80;;;;;;;22.64;51.61;99902.03;5009508;28;100804;-79
2022/06/19 03:16:35;;;;;;;8.35;7.50;;;;;;;22.68;51.27;99908.78;5003529;28;96862;-78
2022/06/19 03:19:01;;;;;;;8.40;7.72;;;;;;;22.58;51.44;99884.72;5013098;28;96808;-79
2022/06/19 03:21:27;;;;;;;9.93;7.45;;;;;;;22.62;51.59;99896.81;4996029;28;101116;-78
2022/06/19 03:23:53;;;;;;;8.02;7.32;;;;;;;22.65;51.35;99890.34;5013014;28;101540;-79
2022/06/19 03:26:19;;;;;;;8.35;7.65;;;;;;;22.53;51.79;99873.59;5030770;28;96840;-82
2022/06/19 03:28:44;;;;;;;8.52;7.47;;;;;;;22.55;51.54;99875.16;5012085;28;97450;-79
2022/06/19 03:31:17;;;;;;;7.80;7.07;;;;;;;22.53;51.44;99849.53;5003942;28;101075;-82
2022/06/19 03:33:42;;;;;;;8.25;7.55;;;;;;;22.63;51.45;99860.22;4995610;28;101306;-78
2022/06/19 03:36:08;;;;;;;8.85;7.93;;;;;;;22.62;51.54;99870.06;4992336;28;97083;-82
2022/06/19 03:38:33;;;;;;;9.15;7.93;;;;;;;22.56;51.40;99844.72;4990288;28;97088;-82
2022/06/19 03:40:58;;;;;;;8.10;7.40;;;;;;;22.57;51.10;99822.38;4997986;28;98070;-82
2022/06/19 03:43:24;;;;;;;8.40;7.10;;;;;;;22.75;50.67;99864.47;4992489;28;101113;-79
2022/06/19 03:45:49;;;;;;;7.72;6.95;;;;;;;22.80;50.65;99868.38;5016692;28;96791;-81
2022/06/19 03:48:15;;;;;;;7.57;6.90;;;;;;;22.82;50.91;99853.03;4986224;28;97327;-79
2022/06/19 03:50:41;;;;;;;7.07;6.32;;;;;;;22.92;50.49;99855.72;4994170;28;101373;-79
2022/06/19 03:53:08;;;;;;;7.93;7.43;;;;;;;23.04;50.37;99867.16;4995443;28;101379;-82
2022/06/19 03:55:34;;;;;;;7.63;6.88;;;;;;;22.99;50.28;99870.22;4995984;28;97386;-82
2022/06/19 03:58:00;;;;;;;9.82;7.07;;;;;;;22.90;50.32;99860.34;4992986;28;97239;-79
2022/06/19 04:00:25;;;;;;;9.63;6.75;;;;;;;22.99;50.74;99867.56;5005430;28;101571;-79
2022/06/19 04:02:51;;;;;;;7.70;7.00;;;;;;;23.01;50.56;99865.59;4985492;28;101942;-79
2022/06/19 04:05:18;;;;;;;10.23;7.15;;;;;;;23.01;50.66;99835.31;4995682;28;96757;-79
2022/06/19 04:07:48;;;;;;;8.00;7.00;;;;;;;23.01;50.47;99829.97;5001956;28;97672;-79
2022/06/19 04:10:16;;;;;;;7.50;6.80;;;;;;;23.10;50.48;99845.16;5012100;28;101183;-80
2022/06/19 04:12:42;;;;;;;7.97;7.15;;;;;;;23.15;50.44;99850.88;5014248;28;101088;-82
2022/06/19 04:15:09;;;;;;;9.93;7.03;;;;;;;23.21;50.23;99853.03;4989604;28;96821;-80
2022/06/19 04:17:35;;;;;;;7.13;6.63;;;;;;;23.22;49.97;99840.47;4986620;28;97096;-82
2022/06/19 04:20:02;;;;;;;18.67;6.93;;;;;;;23.23;50.15;99836.78;5032577;28;101626;-79
2022/06/19 04:22:28;;;;;;;7.03;6.53;;;;;;;23.21;49.91;99822.69;5016769;28;101423;-79
2022/06/19 04:24:53;;;;;;;7.90;7.18;;;;;;;23.35;49.92;99821.41;5016935;28;96793;-79
2022/06/19 04:27:18;;;;;;;7.78;6.72;;;;;;;23.30;49.52;99811.16;5016992;28;97334;-79
2022/06/19 04:29:44;;;;;;;9.82;7.03;;;;;;;23.45;49.50;99823.06;5000120;28;101108;-80
2022/06/19 04:32:09;;;;;;;7.93;6.85;;;;;;;23.45;49.31;99824.91;5016176;28;97679;-79
2022/06/19 04:34:35;;;;;;;8.30;6.60;;;;;;;23.56;49.23;99822.03;4997589;28;97381;-79
2022/06/19 04:37:00;;;;;;;12.32;6.90;;;;;;;23.62;49.01;99828.59;5004061;28;96978;-79
2022/06/19 04:39:26;;;;;;;7.72;6.82;;;;;;;23.75;48.80;99837.19;5015956;28;101638;-79
2022/06/19 04:41:51;;;;;;;9.50;7.20;;;;;;;23.82;48.41;99821.34;5008939;28;100968;-79
2022/06/19 04:44:17;;;;;;;8.52;7.78;;;;;;;23.93;48.14;99810.44;5006200;28;97208;-82
2022/06/19 04:46:44;;;;;;;7.45;6.93;;;;;;;24.06;48.10;99818.97;5013900;28;96906;-79
2022/06/19 04:49:11;;;;;;;7.05;6.38;;;;;;;24.14;47.88;99815.50;5016201;28;101210;-79
2022/06/19 04:51:36;;;;;;;7.72;6.97;;;;;;;24.22;47.83;99818.28;4994948;28;101354;-79
2022/06/19 04:54:02;;;;;;;12.60;7.15;;;;;;;24.28;47.65;99825.72;4998962;28;97168;-81
2022/06/19 04:56:27;;;;;;;9.20;6.93;;;;;;;24.37;47.45;99832.00;5003639;28;96908;-80
2022/06/19 04:58:53;;;;;;;7.70;6.97;;;;;;;24.35;47.31;99807.19;5014915;28;101152;-80
2022/06/19 05:01:22;;;;;;;7.93;7.32;;;;;;;24.39;47.14;99814.75;4997503;28;101275;-80
2022/06/19 05:03:47;;;;;;;11.43;7.47;;;;;;;24.56;47.15;99829.22;5030334;28;97340;-80
2022/06/19 05:06:13;;;;;;;8.18;7.40;;;;;;;24.70;47.23;99835.03;4994552;28;97296;-82
2022/06/19 05:08:38;;;;;;;8.43;7.68;;;;;;;24.75;46.79;99820.13;4997398;28;101268;-80
2022/06/19 05:11:04;;;;;;;8.00;7.20;;;;;;;24.67;46.45;99793.25;4992918;28;101043;-82
2022/06/19 05:13:29;;;;;;;8.20;7.40;;;;;;;24.83;46.03;99804.09;5003530;28;97070;-79
2022/06/19 05:16:16;;;;;;;8.65;7.88;;;;;;;24.88;46.27;99792.91;4995264;28;97628;-83
2022/06/19 05:18:42;;;;;;;9.18;7.97;;;;;;;25.04;46.19;99792.16;5009816;28;101248;-82
2022/06/19 05:21:07;;;;;;;8.40;7.55;;;;;;;25.36;45.83;99830.97;5013665;28;101031;-84
2022/06/19 05:23:45;;;;;;;8.93;7.13;;;;;;;25.43;45.51;99814.09;4995240;28;97276;-82
2022/06/19 05:26:21;;;;;;;11.70;7.55;;;;;;;25.52;45.30;99807.75;4991408;28;97575;-79
2022/06/19 05:28:49;;;;;;;7.82;7.13;;;;;;;25.67;45.35;99816.03;5008699;28;101211;-79
2022/06/19 05:31:16;;;;;;;11.25;8.32;;;;;;;25.57;45.31;99801.91;4997307;28;101797;-82
2022/06/19 05:33:42;;;;;;;8.75;7.93;;;;;;;25.69;45.14;99786.31;5014211;28;97298;-82
2022/06/19 05:36:07;;;;;;;8.73;7.78;;;;;;;25.94;44.56;99814.13;4991268;28;97073;-82
2022/06/19 05:38:33;;;;;;;8.45;7.60;;;;;;;25.96;44.41;99801.38;5014894;28;101508;-82
2022/06/19 05:41:00;;;;;;;9.10;8.20;;;;;;;26.09;44.37;99804.44;4998428;28;101613;-84
2022/06/19 05:43:29;;;;;;;9.82;8.02;;;;;;;26.22;44.04;99805.81;4997242;28;97086;-82
2022/06/19 05:46:03;;;;;;;8.68;7.25;;;;;;;26.24;43.92;99798.41;4998344;28;97491;-79
2022/06/19 05:48:29;;;;;;;8.55;7.65;;;;;;;26.39;44.31;99786.00;4998435;28;101191;-80
2022/06/19 05:51:10;;;;;;;9.18;8.20;;;;;;;26.60;43.44;99798.97;4994617;28;101212;-82
2022/06/19 05:53:39;;;;;;;9.20;8.40;;;;;;;26.73;43.51;99818.13;4996720;28;97147;-80
2022/06/19 05:56:05;;;;;;;9.23;8.25;;;;;;;26.80;43.40;99810.25;4993865;28;97063;-80
2022/06/19 05:58:32;;;;;;;8.68;7.93;;;;;;;26.85;43.12;99786.34;4995044;28;101379;-80
2022/06/19 06:00:57;;;;;;;8.73;7.93;;;;;;;27.16;43.16;99808.03;5007399;28;97324;-80
2022/06/19 06:03:24;;;;;;;9.77;9.07;;;;;;;27.33;42.53;99787.28;5013756;28;97421;-82
2022/06/19 06:05:50;;;;;;;14.23;8.35;;;;;;;27.80;41.86;99802.59;4995142;28;97213;-82
2022/06/19 06:08:16;;;;;;;8.82;8.02;;;;;;;27.98;41.38;99811.28;5011400;28;98198;-82
2022/06/19 06:10:42;;;;;;;9.23;7.80;;;;;;;28.10;40.46;99811.72;4994333;28;101096;-83
2022/06/19 06:13:07;;;;;;;8.63;7.93;;;;;;;28.50;40.27;99798.16;5010252;28;97152;-83
2022/06/19 06:15:34;;;;;;;10.93;8.85;;;;;;;28.82;39.58;99799.72;5009238;28;97161;-83
2022/06/19 06:18:00;;;;;;;9.30;8.60;;;;;;;28.69;39.81;99800.34;5012052;28;101261;-84
2022/06/19 06:20:26;;;;;;;8.77;8.05;;;;;;;28.65;39.40;99799.88;5013504;28;101869;-83
2022/06/19 06:22:52;;;;;;;9.75;8.95;;;;;;;28.78;39.36;99796.56;5014480;28;97175;-80
2022/06/19 06:25:17;;;;;;;9.55;8.70;;;;;;;28.95;39.26;99777.50;4997514;28;97330;-80
2022/06/19 06:27:43;;;;;;;10.35;9.35;;;;;;;29.05;38.90;99800.53;5013896;28;97595;-86
2022/06/19 06:30:10;;;;;;;9.30;8.40;;;;;;;29.46;38.63;99791.97;5010841;28;101230;-87
2022/06/19 06:32:36;;;;;;;9.43;8.35;;;;;;;30.06;37.61;99767.56;5008867;28;98425;-87
2022/06/19 06:35:01;;;;;;;8.90;8.23;;;;;;;30.11;37.83;99784.91;5012002;28;97105;-87
2022/06/19 06:37:27;;;;;;;8.65;8.05;;;;;;;30.32;37.46;99784.09;5023251;28;97307;-87
2022/06/19 06:39:52;;;;;;;10.15;8.57;;;;;;;30.41;36.74;99774.81;5011206;28;97971;-86
2022/06/19 06:42:17;;;;;;;9.27;8.32;;;;;;;30.53;36.46;99766.16;5009698;28;96662;-86
2022/06/19 06:44:43;;;;;;;9.07;8.38;;;;;;;30.85;36.13;99781.03;5010491;28;97518;-87
2022/06/19 06:47:08;;;;;;;10.07;9.13;;;;;;;31.32;35.49;99787.59;5013842;28;98572;-87
2022/06/19 06:49:34;;;;;;;9.60;8.88;;;;;;;31.40;34.95;99778.50;5013244;28;100111;-86
2022/06/19 06:52:00;;;;;;;10.07;9.15;;;;;;;31.61;34.67;99751.25;5008796;28;97849;-89
2022/06/19 06:54:25;;;;;;;9.25;8.65;;;;;;;31.32;35.04;99768.63;5012071;28;97267;-92
2022/06/19 06:56:54;;;;;;;10.15;9.35;;;;;;;31.66;34.56;99785.94;5010967;28;100791;-92
2022/06/19 06:59:20;;;;;;;9.63;8.38;;;;;;;31.92;34.27;99785.22;4992271;28;102060;-90
2022/06/19 07:01:45;;;;;;;10.05;8.95;;;;;;;31.78;34.30;99787.00;5013122;28;96875;-91
2022/06/19 07:04:10;;;;;;;12.65;9.68;;;;;;;31.65;34.54;99755.25;5010717;28;96742;-91
2022/06/19 07:06:36;;;;;;;9.00;8.40;;;;;;;32.72;33.45;99780.75;5020676;28;97381;-90
2022/06/19 07:09:02;;;;;;;9.98;8.60;;;;;;;33.11;32.67;99769.03;5013131;28;101688;-89
2022/06/19 07:11:33;;;;;;;9.55;8.77;;;;;;;33.69;32.07;99767.44;5010574;28;96743;-92
2022/06/19 07:13:59;;;;;;;9.93;9.05;;;;;;;33.68;32.16;99754.84;5003603;28;97567;-92
2022/06/19 07:16:24;;;;;;;9.73;8.90;;;;;;;34.00;31.78;99753.81;4989276;28;101337;-92
2022/06/19 07:18:50;;;;;;;11.00;8.50;;;;;;;33.11;32.33;99746.47;5005681;28;98487;-92
2022/06/19 07:21:15;;;;;;;8.80;8.10;;;;;;;33.20;32.51;99760.66;5030612;28;97715;-92
2022/06/19 07:23:41;;;;;;;9.82;8.95;;;;;;;33.56;31.67;99749.25;4994869;28;97407;-90
2022/06/19 07:26:12;;;;;;;10.00;9.18;;;;;;;33.51;31.76;99743.59;5008532;28;101214;-90
2022/06/19 07:28:39;;;;;;;9.45;8.70;;;;;;;33.51;31.64;99741.75;5028469;28;97568;-92
2022/06/19 07:31:06;;;;;;;9.50;8.80;;;;;;;32.90;32.55;99745.63;4995691;28;97387;-92
2022/06/19 07:33:33;;;;;;;9.10;8.60;;;;;;;33.33;32.12;99742.41;4990968;28;96899;-89
2022/06/19 07:35:58;;;;;;;9.07;8.30;;;;;;;33.39;32.35;99740.72;5010283;28;101203;-90
2022/06/19 07:38:24;;;;;;;9.35;8.60;;;;;;;33.04;32.49;99745.63;5012318;28;97914;-90
2022/06/19 07:40:49;;;;;;;9.23;8.48;;;;;;;33.59;31.94;99736.03;4995399;28;96791;-89
2022/06/19 07:43:14;;;;;;;9.80;8.30;;;;;;;33.65;31.91;99741.69;5025350;28;96846;-89
2022/06/19 07:45:41;;;;;;;8.93;8.32;;;;;;;34.18;30.80;99725.06;5009088;28;101527;-92
2022/06/19 07:50:50;;;;;;;8.93;8.23;;;;;;;34.22;30.86;99729.84;5026169;28;96871;-93
2022/06/19 07:53:16;;;;;;;10.70;9.70;;;;;;;34.61;30.60;99716.97;5026811;28;96864;-88
2022/06/19 07:55:42;;;;;;;8.88;8.25;;;;;;;34.35;30.28;99714.44;5001574;28;101308;-87
2022/06/19 08:02:32;;;;;;;9.77;8.90;;;;;;;34.07;30.73;99704.84;5031918;28;97057;-87
2022/06/19 08:04:58;;;;;;;12.05;8.98;;;;;;;34.39;30.39;99711.06;5014995;28;96819;-87
2022/06/19 08:07:50;;;;;;;11.23;9.05;;;;;;;35.16;29.52;99710.78;5028696;28;98044;-87
2022/06/19 08:10:53;;;;;;;9.75;8.80;;;;;;;35.60;28.79;99700.59;5016152;28;99857;-89
2022/06/19 08:13:32;;;;;;;9.27;8.38;;;;;;;36.00;28.30;99702.75;4990974;28;97150;-87
2022/06/19 08:16:08;;;;;;;11.65;8.88;;;;;;;35.58;28.41;99703.56;5027746;28;96759;-87
2022/06/19 08:18:34;;;;;;;9.52;8.82;;;;;;;35.68;28.54;99700.28;5002686;28;97977;-89
2022/06/19 08:21:01;;;;;;;9.60;8.93;;;;;;;35.80;28.52;99709.34;5011289;28;100328;-85
2022/06/19 08:23:27;;;;;;;9.73;8.05;;;;;;;35.62;28.43;99709.41;4998972;28;97464;-83
2022/06/19 08:25:53;;;;;;;10.40;9.00;;;;;;;35.56;28.38;99702.13;4989726;28;96836;-86
2022/06/19 08:28:32;;;;;;;9.45;8.75;;;;;;;35.60;28.26;99704.16;4995242;28;98117;-87
2022/06/19 08:30:58;;;;;;;8.65;7.85;;;;;;;35.61;28.27;99702.28;5007601;28;100963;-87
2022/06/19 08:33:23;;;;;;;9.48;8.55;;;;;;;35.38;28.09;99708.44;4995121;28;97169;-87
2022/06/19 08:35:52;;;;;;;8.50;7.90;;;;;;;35.79;28.05;99695.94;4997077;28;97086;-85
2022/06/19 08:38:24;;;;;;;8.73;8.10;;;;;;;36.16;27.37;99687.59;5034567;27;96868;-87
2022/06/19 08:40:49;;;;;;;10.13;8.70;;;;;;;36.19;27.90;99689.91;5004676;28;99606;-85
2022/06/19 08:43:41;;;;;;;8.98;8.35;;;;;;;36.33;27.15;99677.66;5013954;28;97221;-85
2022/06/19 08:46:31;;;;;;;7.95;7.43;;;;;;;36.17;27.33;99692.84;5000703;28;97107;-90
2022/06/19 08:49:05;;;;;;;9.32;7.68;;;;;;;35.41;27.80;99675.22;5002040;28;102060;-85
2022/06/19 08:52:16;;;;;;;8.30;7.47;;;;;;;35.29;27.87;99687.97;5012537;28;101661;-85
2022/06/19 08:54:47;;;;;;;8.40;7.78;;;;;;;35.28;28.58;99681.66;4948751;28;98446;-83
2022/06/19 08:57:31;;;;;;;8.32;7.65;;;;;;;35.33;28.44;99675.53;4945410;28;97654;-84
2022/06/19 09:00:06;;;;;;;11.48;7.78;;;;;;;34.96;28.34;99669.25;4915347;28;102051;-84
2022/06/19 09:02:37;;;;;;;7.90;7.15;;;;;;;34.51;28.66;99677.66;4949412;28;101638;-84
2022/06/19 09:05:36;;;;;;;8.32;7.53;;;;;;;34.00;29.75;99683.06;4946571;28;97813;-85
2022/06/19 09:08:07;;;;;;;8.05;7.35;;;;;;;34.01;30.04;99682.00;4948480;28;96961;-83
2022/06/19 09:11:07;;;;;;;8.30;7.55;;;;;;;33.97;29.72;99682.66;4931947;28;101977;-92
2022/06/19 09:13:42;;;;;;;;;;;;;;;34.13;29.92;99679.44;4931428;28;101721;-86
2022/06/19 09:16:37;;;;;;;10.98;7.25;;;;;;;34.42;29.73;99668.94;4931325;28;96858;-82
2022/06/19 09:19:12;;;;;;;14.88;7.95;;;;;;;34.28;28.68;99675.56;4916044;28;97521;-85
2022/06/19 09:22:07;;;;;;;10.32;7.45;;;;;;;33.72;29.95;99663.59;4928641;28;101496;-85
2022/06/19 09:24:57;;;;;;;10.32;7.72;;;;;;;33.49;29.69;99650.50;4922441;28;98661;-87
2022/06/19 09:27:36;;;;;;;12.63;7.57;;;;;;;33.78;29.37;99652.66;5024985;28;96679;-86
2022/06/19 09:30:13;;;;;;;10.38;8.25;;;;;;;33.66;29.24;99654.41;5014671;28;97233;-87
2022/06/19 09:32:53;;;;;;;12.40;7.72;;;;;;;33.44;28.96;99656.59;5013418;28;99974;-86
2022/06/19 09:35:52;;;;;;;8.00;7.17;;;;;;;33.45;29.28;99649.25;5013368;28;101450;-90
2022/06/19 09:38:29;;;;;;;13.85;7.68;;;;;;;33.45;29.76;99630.22;5022534;28;98251;-87
2022/06/19 09:40:59;;;;;;;7.40;6.70;;;;;;;33.42;29.57;99641.53;4991090;28;97175;-86
2022/06/19 09:43:30;;;;;;;12.90;7.60;;;;;;;33.42;29.32;99642.34;5012376;28;101203;-87
2022/06/19 09:46:07;;;;;;;10.02;7.78;;;;;;;33.22;29.34;99641.63;5004150;28;98093;-87
2022/06/19 09:49:00;;;;;;;8.70;7.30;;;;;;;33.11;29.24;99656.75;5014161;28;97369;-85
2022/06/19 09:51:49;;;;;;;9.73;7.43;;;;;;;33.02;29.27;99648.00;5027588;28;97191;-85
2022/06/19 09:54:17;;;;;;;9.10;6.82;;;;;;;33.03;29.80;99643.41;4987923;28;101759;-87
2022/06/19 09:57:15;;;;;;;10.82;7.75;;;;;;;33.08;29.71;99651.75;5028926;28;101448;-87
2022/06/19 09:59:43;;;;;;;9.80;6.80;;;;;;;32.92;30.19;99645.69;4966929;28;96928;-85
2022/06/19 10:02:23;;;;;;;12.30;6.55;;;;;;;32.76;30.57;99653.50;5029199;28;97340;-86
2022/06/19 10:04:55;;;;;;;7.70;7.03;;;;;;;32.68;30.16;99641.78;4988211;28;101406;-86
2022/06/19 10:07:27;;;;;;;8.00;6.40;;;;;;;32.79;30.12;99634.88;5008306;28;98092;-78
2022/06/19 10:09:57;;;;;;;11.13;6.93;;;;;;;33.19;29.37;99632.00;5000806;28;96850;-77
2022/06/19 10:12:36;;;;;;;7.90;6.63;;;;;;;33.49;29.37;99629.56;5014741;28;98230;-78
2022/06/19 10:15:06;;;;;;;11.05;5.93;;;;;;;33.39;28.41;99631.91;5010997;28;99301;-83
2022/06/19 10:17:49;;;;;;;8.88;6.78;;;;;;;33.38;28.31;99632.97;4986441;28;102305;-84
2022/06/19 10:20:20;;;;;;;15.73;7.10;;;;;;;33.11;28.12;99644.00;5012496;28;96777;-85
2022/06/19 10:23:01;;;;;;;9.63;6.60;;;;;;;32.99;28.39;99625.81;5002004;28;96900;-80
2022/06/19 10:26:02;;;;;;;10.25;6.35;;;;;;;32.92;28.65;99598.66;5023705;28;97481;-80
2022/06/19 10:28:54;;;;;;;13.57;6.50;;;;;;;32.90;28.80;99607.03;5027237;28;97805;-79
2022/06/19 10:31:40;;;;;;;13.35;7.05;;;;;;;32.68;29.30;99603.75;5013858;28;97217;-77
2022/06/19 10:34:24;;;;;;;14.30;6.95;;;;;;;32.65;28.66;99601.47;5027406;28;96822;-78
2022/06/19 10:37:18;;;;;;;11.77;6.93;;;;;;;32.56;29.08;99626.38;5032864;28;97598;-78
2022/06/19 10:39:48;;;;;;;9.25;7.22;;;;;;;32.49;29.26;99601.09;5023876;27;101085;-78
2022/06/19 10:42:26;;;;;;;9.38;7.07;;;;;;;32.50;28.62;99598.16;5013937;28;96919;-78
2022/06/19 10:45:16;;;;;;;8.13;7.25;;;;;;;32.62;28.72;99599.19;5013462;28;97339;-78
2022/06/19 10:47:41;;;;;;;;;;;;;;;32.51;28.93;99593.56;5030552;28;98073;-78
2022/06/19 10:50:13;;;;;;;8.65;6.72;;;;;;;32.56;29.15;99599.19;5031231;28;100799;-78
2022/06/19 10:52:54;;;;;;;8.27;7.10;;;;;;;32.59;29.04;99596.06;5019314;28;96812;-78
2022/06/19 10:55:43;;;;;;;7.13;6.53;;;;;;;32.64;29.20;99601.69;5030436;28;96878;-78
2022/06/19 10:58:21;;;;;;;9.30;6.47;;;;;;;32.64;28.97;99569.09;4994425;28;100760;-78
2022/06/19 11:00:55;;;;;;;10.65;6.40;;;;;;;32.51;29.07;99563.69;5003289;28;97608;-78
2022/06/19 11:06:36;;;;;;;9.90;6.93;;;;;;;32.46;29.08;99565.19;5031124;28;96718;-78
2022/06/19 11:09:08;;;;;;;12.73;6.70;;;;;;;32.47;29.18;99555.16;5031558;28;98485;-78
2022/06/19 11:11:35;;;;;;;7.53;6.65;;;;;;;32.53;29.39;99561.59;4997511;28;101616;-78
2022/06/19 11:14:03;;;;;;;13.32;6.50;;;;;;;32.57;29.11;99555.50;5013814;28;96892;-78
2022/06/19 11:16:31;;;;;;;7.97;6.38;;;;;;;32.43;28.82;99559.28;5014569;28;96883;-75
2022/06/19 11:18:57;;;;;;;8.05;7.25;;;;;;;32.42;28.22;99555.75;5026640;28;101231;-78
2022/06/19 11:21:33;;;;;;;8.02;6.32;;;;;;;32.39;28.26;99544.47;5009171;28;100793;-78
2022/06/19 11:24:01;;;;;;;9.52;6.72;;;;;;;32.39;28.10;99563.47;5025586;28;96827;-79
2022/06/19 11:26:43;;;;;;;11.63;7.13;;;;;;;32.29;27.84;99547.63;5030243;28;97459;-78
2022/06/19 11:29:20;;;;;;;11.77;6.20;;;;;;;32.42;27.76;99535.91;5031008;28;97580;-78
2022/06/19 11:32:09;;;;;;;10.15;6.10;;;;;;;32.49;27.07;99563.88;5014577;28;100907;-77
2022/06/19 11:34:48;;;;;;;10.57;6.60;;;;;;;32.37;27.29;99524.84;5027734;28;97227;-78
2022/06/19 11:37:24;;;;;;;9.88;6.22;;;;;;;32.45;26.99;99511.06;5007690;28;97204;-78
2022/06/19 11:39:58;;;;;;;11.38;6.78;;;;;;;32.54;27.33;99527.97;5019812;28;97559;-78
2022/06/19 11:42:29;;;;;;;12.27;6.07;;;;;;;32.45;27.75;99536.34;5030524;28;101213;-77
2022/06/19 11:45:00;;;;;;;8.18;5.75;;;;;;;32.50;27.72;99515.88;5021159;28;96798;-78
2022/06/19 11:47:41;;;;;;;13.95;6.80;;;;;;;32.42;27.54;99487.03;5030752;28;96696;-78
2022/06/19 11:50:35;;;;;;;9.15;6.20;;;;;;;32.51;27.69;99529.22;5007675;28;98178;-78
2022/06/19 11:53:06;;;;;;;10.63;6.35;;;;;;;32.46;28.25;99507.28;5028805;28;97938;-78
2022/06/19 11:55:45;;;;;;;11.95;6.75;;;;;;;32.32;28.42;99521.91;5030546;28;97106;-77
2022/06/19 11:58:30;;;;;;;13.50;7.90;;;;;;;32.19;28.55;99522.78;5010752;28;96858;-76